This is the latest recevied weather packets stored in our database for station/object JH1LWU-13. If no packets are shown the sender has not sent any weather packets the latest 10 day(s).
| Time | Temp. | Humidity | Pressure | Rain* | Wind** | Luminosity | Snow |
|---|---|---|---|---|---|---|---|
| 1788067116 | 24.44° C | 69% | 1006 hPa | - | - | - | - |
| 1788065315 | 25° C | 67% | 1005 hPa | - | - | - | - |
| 1788063514 | 25° C | 65% | 1004 hPa | - | - | - | - |
| 1788061713 | 25° C | 64% | 1007 hPa | - | - | - | - |
| 1788059912 | 23.89° C | 69% | 1007 hPa | - | - | - | - |
| 1788058111 | 24.44° C | 66% | 1007 hPa | - | - | - | - |
| 1788056310 | 25° C | 64% | 1007 hPa | - | - | - | - |
| 1788054509 | 23.89° C | 67% | 1006 hPa | - | - | - | - |
| 1788052708 | 23.33° C | 70% | 1007 hPa | - | - | - | - |
| 1788050907 | 22.78° C | 72% | 1005 hPa | - | - | - | - |
| 1788049106 | 22.22° C | 75% | 1008 hPa | - | - | - | - |
| 1788047305 | 22.22° C | 74% | 1007 hPa | - | - | - | - |
| 1788045504 | 21.11° C | 79% | 1006 hPa | - | - | - | - |
| 1788043703 | 20° C | 81% | 1006 hPa | - | - | - | - |
| 1788041902 | 19.44° C | 82% | 1007 hPa | - | - | - | - |
| 1788040101 | 19.44° C | 83% | 1008 hPa | - | - | - | - |
| 1788038300 | 19.44° C | 83% | 1008 hPa | - | - | - | - |
| 1788036499 | 19.44° C | 83% | 1007 hPa | - | - | - | - |
| 1788034698 | 19.44° C | 83% | 1008 hPa | - | - | - | - |
| 1788032897 | 19.44° C | 83% | 1005 hPa | - | - | - | - |
| 1788031096 | 18.89° C | 83% | 1006 hPa | - | - | - | - |
| 1788029295 | 18.89° C | 82% | 1008 hPa | - | - | - | - |
| 1788027494 | 18.89° C | 82% | 1007 hPa | - | - | - | - |
| 1788025693 | 18.89° C | 82% | 1005 hPa | - | - | - | - |
| 1788023892 | 18.89° C | 82% | 1007 hPa | - | - | - | - |
* Rain since midnight (hover to see other rain measurements)
** Current wind speed in m/s (hover to see current wind gust speed)